Time;durP1;ratioP1;P1;durP2;ratioP2;P2;SDS_P1;SDS_P2;PMS_P1;PMS_P2;Temp;Humidity;BMP_temperature;BMP_pressure;BME280_temperature;BME280_humidity;BME280_pressure;Samples;Min_cycle;Max_cycle;Signal;HPM_P1;HPM_P2
2022/10/28 00:02:35;;;;;;;1999.90;999.90;;;18.30;99.90;;;;;;6738679;88;20202;-79
2022/10/28 00:12:36;;;;;;;1999.90;999.90;;;18.30;99.90;;;;;;6743985;87;20193;-79
2022/10/28 00:22:37;;;;;;;1999.90;999.90;;;18.40;99.90;;;;;;6746598;88;20334;-80
2022/10/28 00:32:38;;;;;;;1999.90;999.90;;;18.50;99.90;;;;;;6756974;88;20728;-79
2022/10/28 00:42:38;;;;;;;1999.90;999.90;;;18.50;99.90;;;;;;6746962;88;20250;-79
2022/10/28 00:52:40;;;;;;;1999.90;999.90;;;18.50;99.90;;;;;;6748940;88;20304;-79
2022/10/28 01:02:46;;;;;;;1999.90;999.90;;;18.50;99.90;;;;;;6746557;88;20669;-79
2022/10/28 01:13:19;;;;;;;1999.90;999.90;;;18.60;99.90;;;;;;6744384;87;20243;-79
2022/10/28 01:23:52;;;;;;;1999.90;999.90;;;18.70;99.90;;;;;;6748524;87;20245;-78
2022/10/28 01:34:20;;;;;;;1999.90;999.90;;;18.60;99.90;;;;;;6748760;88;20270;-79
2022/10/28 01:44:45;;;;;;;1999.90;999.90;;;18.60;99.90;;;;;;6747448;88;20201;-79
2022/10/28 01:54:48;;;;;;;1999.90;999.90;;;18.60;99.90;;;;;;6748063;88;20223;-79
2022/10/28 02:04:49;;;;;;;1999.90;999.90;;;18.60;99.90;;;;;;6753883;88;20172;-79
2022/10/28 02:15:33;;;;;;;1999.90;999.90;;;18.50;99.90;;;;;;6748477;88;20210;-79
2022/10/28 02:25:55;;;;;;;1999.90;999.90;;;18.60;99.90;;;;;;6742224;88;20641;-79
2022/10/28 02:36:04;;;;;;;1999.90;999.90;;;18.70;99.90;;;;;;6749170;88;20183;-79
2022/10/28 02:46:05;;;;;;;1999.90;999.90;;;18.70;99.90;;;;;;6752496;88;20294;-77
2022/10/28 02:56:08;;;;;;;1999.90;999.90;;;18.40;99.90;;;;;;6745463;88;20236;-80
2022/10/28 03:06:08;;;;;;;1999.90;999.90;;;18.10;99.90;;;;;;6743069;88;20875;-79
2022/10/28 03:16:09;;;;;;;1999.90;999.90;;;18.50;99.90;;;;;;6745108;88;20235;-79
2022/10/28 03:26:09;;;;;;;1999.90;999.90;;;18.50;99.90;;;;;;6745660;88;20199;-79
2022/10/28 03:36:10;;;;;;;1999.90;999.90;;;18.30;99.90;;;;;;6739880;88;20211;-79
2022/10/28 03:46:10;;;;;;;1999.90;999.90;;;18.20;99.90;;;;;;6750083;88;20235;-79
2022/10/28 03:56:11;;;;;;;1999.90;999.90;;;18.10;99.90;;;;;;6750287;88;20181;-79
2022/10/28 04:06:13;;;;;;;1999.90;999.90;;;18.00;99.90;;;;;;6746308;88;20235;-80
2022/10/28 04:16:13;;;;;;;1999.90;999.90;;;17.90;99.90;;;;;;6736551;88;20198;-79
2022/10/28 04:26:14;;;;;;;1999.90;999.90;;;17.80;99.90;;;;;;6747100;88;20188;-79
2022/10/28 04:36:14;;;;;;;1999.90;999.90;;;17.80;99.90;;;;;;6746744;88;20224;-80
2022/10/28 04:46:15;;;;;;;1999.90;999.90;;;17.80;99.90;;;;;;6751680;88;20203;-79
2022/10/28 04:56:15;;;;;;;1999.90;999.90;;;17.80;99.90;;;;;;6754257;88;20327;-80
2022/10/28 05:06:16;;;;;;;1999.90;999.90;;;17.30;99.90;;;;;;6739907;88;20344;-80
2022/10/28 05:16:17;;;;;;;1999.90;999.90;;;16.90;99.90;;;;;;6779855;77;20189;-79
2022/10/28 05:26:17;;;;;;;1999.90;999.90;;;17.20;99.90;;;;;;6746985;88;20224;-80
2022/10/28 05:36:18;;;;;;;1999.90;999.90;;;17.30;99.90;;;;;;6755891;87;20196;-81
2022/10/28 05:46:18;;;;;;;1999.90;999.90;;;17.20;99.90;;;;;;6753979;88;20690;-80
2022/10/28 05:56:19;;;;;;;1999.90;999.90;;;17.20;99.90;;;;;;6753114;88;20212;-80
2022/10/28 06:06:19;;;;;;;1999.90;999.90;;;17.40;99.90;;;;;;6756092;87;20188;-80
2022/10/28 06:16:20;;;;;;;1999.90;999.90;;;17.50;99.90;;;;;;6763442;88;20501;-80
2022/10/28 06:26:20;;;;;;;1999.90;999.90;;;17.60;99.90;;;;;;6771891;87;20728;-82
2022/10/28 06:36:21;;;;;;;1999.90;999.90;;;17.60;99.90;;;;;;6766607;88;20207;-82
2022/10/28 06:46:22;;;;;;;1999.90;999.90;;;17.60;99.90;;;;;;6766808;87;20188;-83
2022/10/28 06:56:22;;;;;;;1999.90;999.90;;;17.70;99.90;;;;;;6767740;88;20188;-82
2022/10/28 07:06:23;;;;;;;1999.90;999.90;;;17.60;99.90;;;;;;6763625;88;20216;-80
2022/10/28 07:16:23;;;;;;;1999.90;999.90;;;17.80;99.90;;;;;;6757957;88;20192;-81
2022/10/28 07:26:24;;;;;;;1999.90;999.90;;;18.00;99.90;;;;;;6762210;88;20195;-82
2022/10/28 07:36:24;;;;;;;1999.90;999.90;;;18.10;99.90;;;;;;6767894;88;20499;-80
2022/10/28 07:46:25;;;;;;;1999.90;999.90;;;18.30;99.90;;;;;;6760054;87;20230;-81
2022/10/28 07:56:25;;;;;;;1999.90;999.90;;;18.30;99.90;;;;;;6759111;87;20701;-81
2022/10/28 08:06:26;;;;;;;1999.90;999.90;;;18.50;99.90;;;;;;6760227;88;20217;-80
2022/10/28 08:16:27;;;;;;;1999.90;999.90;;;18.80;99.90;;;;;;6764072;88;20196;-81
2022/10/28 08:26:29;;;;;;;1999.90;999.90;;;18.90;99.90;;;;;;6767272;88;20239;-82
2022/10/28 08:36:29;;;;;;;1999.90;999.90;;;19.00;99.90;;;;;;6767963;88;20225;-81
2022/10/28 08:46:36;;;;;;;1999.90;999.90;;;19.20;99.90;;;;;;6767841;87;20207;-80
2022/10/28 08:56:45;;;;;;;1999.90;999.90;;;19.40;99.90;;;;;;6770261;87;20172;-80
2022/10/28 09:06:45;;;;;;;1999.90;999.90;;;19.80;99.90;;;;;;6764953;87;20225;-81
2022/10/28 09:17:02;;;;;;;1999.90;999.90;;;20.10;99.90;;;;;;6762896;87;20322;-80
2022/10/28 09:27:18;;;;;;;1999.90;999.90;;;20.70;99.90;;;;;;6748777;88;20186;-82
2022/10/28 09:37:28;;;;;;;1999.90;999.90;;;21.10;99.90;;;;;;6745627;88;20263;-81
2022/10/28 09:47:36;;;;;;;1999.90;999.90;;;22.00;99.90;;;;;;6762788;88;20247;-81
2022/10/28 09:57:37;;;;;;;1999.90;999.90;;;22.10;99.90;;;;;;6762902;88;20171;-81
2022/10/28 10:07:43;;;;;;;1999.90;999.90;;;22.30;99.90;;;;;;6763278;88;20657;-81
2022/10/28 10:17:45;;;;;;;1999.90;999.90;;;22.30;99.90;;;;;;6759025;88;20193;-82
2022/10/28 10:28:15;;;;;;;1999.90;999.90;;;22.40;99.90;;;;;;6761467;88;20724;-80
2022/10/28 10:38:15;;;;;;;1999.90;999.90;;;22.80;99.90;;;;;;6744654;88;20216;-81
2022/10/28 10:48:17;;;;;;;1999.90;999.90;;;22.50;99.90;;;;;;6747044;88;20188;-82
2022/10/28 10:58:22;;;;;;;1999.90;999.90;;;22.30;99.90;;;;;;6752616;88;20200;-81
2022/10/28 11:18:28;;;;;;;1999.90;999.90;;;22.90;99.90;;;;;;6717821;88;20281;-77
2022/10/28 11:28:37;;;;;;;1999.90;999.90;;;23.40;99.90;;;;;;6718397;88;20325;-78
2022/10/28 11:38:54;;;;;;;1999.90;999.90;;;23.70;99.90;;;;;;6710450;88;20357;-77
2022/10/28 11:49:28;;;;;;;1999.90;999.90;;;24.90;99.90;;;;;;6703044;88;20235;-77
2022/10/28 11:59:38;;;;;;;;;;;25.30;99.90;;;;;;6727344;88;21064;-77
2022/10/28 12:10:06;;;;;;;1999.90;999.90;;;25.60;99.90;;;;;;6735055;88;20568;-78
2022/10/28 12:20:14;;;;;;;1999.90;999.90;;;25.90;99.90;;;;;;6732578;88;20198;-78
2022/10/28 12:30:40;;;;;;;1999.90;999.90;;;26.70;99.90;;;;;;6722872;88;20242;-77
2022/10/28 12:41:10;;;;;;;1999.90;999.90;;;26.40;99.90;;;;;;6726427;88;20193;-79
2022/10/28 12:51:20;;;;;;;1999.90;999.90;;;25.80;99.90;;;;;;6717040;88;20198;-78
2022/10/28 13:01:24;;;;;;;1999.90;999.90;;;25.90;99.90;;;;;;6713567;88;20210;-78
2022/10/28 13:11:39;;;;;;;1999.90;999.90;;;25.70;99.90;;;;;;6710598;88;20215;-79
2022/10/28 13:22:12;;;;;;;1999.90;999.90;;;25.50;99.90;;;;;;6719978;88;20599;-78
2022/10/28 13:32:42;;;;;;;1999.90;999.90;;;25.60;99.90;;;;;;6711953;88;20193;-77
2022/10/28 13:42:47;;;;;;;1999.90;999.90;;;25.90;99.90;;;;;;6716233;88;20263;-78
2022/10/28 13:53:23;;;;;;;1999.90;999.90;;;26.00;99.90;;;;;;6714886;88;20632;-77
2022/10/28 14:03:25;;;;;;;1999.90;999.90;;;25.70;99.90;;;;;;6719545;88;20242;-77
2022/10/28 14:13:26;;;;;;;1999.90;999.90;;;25.20;99.90;;;;;;6712752;88;20184;-78
2022/10/28 14:23:27;;;;;;;1999.90;999.90;;;24.90;99.90;;;;;;6726625;88;20684;-77
2022/10/28 14:33:27;;;;;;;1999.90;999.90;;;24.70;99.90;;;;;;6725220;88;20208;-78
2022/10/28 14:43:40;;;;;;;1999.90;999.90;;;24.50;99.90;;;;;;6710294;88;20212;-77
2022/10/28 14:53:42;;;;;;;1999.90;999.90;;;24.50;99.90;;;;;;6709886;88;20205;-77
2022/10/28 15:03:49;;;;;;;1999.90;999.90;;;24.10;99.90;;;;;;6711300;88;20212;-77
2022/10/28 15:13:54;;;;;;;1999.90;999.90;;;24.00;99.90;;;;;;6725544;88;20193;-78
2022/10/28 15:24:01;;;;;;;1999.90;999.90;;;23.70;99.90;;;;;;6729096;88;20188;-78
2022/10/28 15:34:01;;;;;;;1999.90;999.90;;;23.40;99.90;;;;;;6742371;88;20310;-78
2022/10/28 15:44:03;;;;;;;1999.90;999.90;;;23.00;99.90;;;;;;6733676;88;20231;-78
2022/10/28 15:54:17;;;;;;;1999.90;999.90;;;23.10;99.90;;;;;;6725751;88;20205;-78
2022/10/28 16:04:17;;;;;;;1999.90;999.90;;;22.60;99.90;;;;;;6719377;88;20192;-78
2022/10/28 16:15:02;;;;;;;1999.90;999.90;;;22.60;99.90;;;;;;6726487;88;20994;-77
2022/10/28 16:25:14;;;;;;;1999.90;999.90;;;22.60;99.90;;;;;;6709944;88;20222;-77
2022/10/28 16:35:16;;;;;;;1999.90;999.90;;;22.30;99.90;;;;;;6705431;88;20229;-78
2022/10/28 16:45:17;;;;;;;1999.90;999.90;;;21.70;99.90;;;;;;6717941;88;20203;-76
2022/10/28 16:55:18;;;;;;;1999.90;999.90;;;21.40;99.90;;;;;;6714419;88;20206;-76
2022/10/28 17:05:22;;;;;;;1999.90;999.90;;;20.90;99.90;;;;;;6732728;88;20193;-78
2022/10/28 17:26:24;;;;;;;1999.90;999.90;;;20.40;99.90;;;;;;6663238;89;20209;-78
2022/10/28 17:36:46;;;;;;;1999.90;999.90;;;20.10;99.90;;;;;;6658102;89;20214;-80
2022/10/28 17:46:50;;;;;;;1999.90;999.90;;;19.70;99.90;;;;;;6653026;89;20341;-80
2022/10/28 17:56:51;;;;;;;1999.90;999.90;;;19.60;99.90;;;;;;6653360;88;20197;-80
2022/10/28 18:06:56;;;;;;;1999.90;999.90;;;19.40;99.90;;;;;;6654874;89;20218;-79
2022/10/28 18:16:57;;;;;;;1999.90;999.90;;;19.30;99.90;;;;;;6653096;89;20292;-79
2022/10/28 18:26:57;;;;;;;1999.90;999.90;;;19.40;99.90;;;;;;6652962;89;20204;-82
2022/10/28 18:36:58;;;;;;;1999.90;999.90;;;19.40;99.90;;;;;;6659013;89;20286;-83
2022/10/28 18:46:59;;;;;;;1999.90;999.90;;;19.40;99.90;;;;;;6660138;89;20191;-81
2022/10/28 18:56:59;;;;;;;1999.90;999.90;;;19.20;99.90;;;;;;6653456;89;20193;-79
2022/10/28 19:07:00;;;;;;;1999.90;999.90;;;19.30;99.90;;;;;;6649647;89;20311;-81
2022/10/28 19:17:00;;;;;;;1999.90;999.90;;;18.90;99.90;;;;;;6649513;89;20217;-80
2022/10/28 19:27:01;;;;;;;1999.90;999.90;;;18.80;99.90;;;;;;6656289;89;20203;-80
2022/10/28 19:37:08;;;;;;;1999.90;999.90;;;18.90;99.90;;;;;;6658937;89;20180;-80
2022/10/28 19:47:09;;;;;;;1999.90;999.90;;;18.80;99.90;;;;;;6665555;89;20193;-79
2022/10/28 19:57:09;;;;;;;1999.90;999.90;;;18.80;99.90;;;;;;6658023;89;20250;-81
2022/10/28 20:07:10;;;;;;;1999.90;999.90;;;18.60;99.90;;;;;;6649103;88;21229;-78
2022/10/28 20:17:14;;;;;;;1999.90;999.90;;;18.60;99.90;;;;;;6658917;88;20203;-80
2022/10/28 20:27:14;;;;;;;1999.90;999.90;;;18.30;99.90;;;;;;6677562;89;20234;-84
2022/10/28 20:37:15;;;;;;;1999.90;999.90;;;18.10;99.90;;;;;;6679831;89;20260;-78
2022/10/28 20:47:16;;;;;;;1999.90;999.90;;;18.20;99.90;;;;;;6674849;89;20203;-80
2022/10/28 20:57:17;;;;;;;1999.90;999.90;;;18.30;99.90;;;;;;6667526;89;20320;-80
2022/10/28 21:07:17;;;;;;;1999.90;999.90;;;17.90;99.90;;;;;;6671093;89;20562;-79
2022/10/28 21:17:18;;;;;;;1999.90;999.90;;;17.90;99.90;;;;;;6672321;89;20207;-79
2022/10/28 21:27:18;;;;;;;1999.90;999.90;;;17.80;99.90;;;;;;6666993;89;20207;-81
2022/10/28 21:37:20;;;;;;;1999.90;999.90;;;17.80;99.90;;;;;;6671316;89;20703;-79
2022/10/28 21:47:20;;;;;;;1999.90;999.90;;;17.80;99.90;;;;;;6670157;89;20741;-80
2022/10/28 21:57:27;;;;;;;1999.90;999.90;;;17.80;99.90;;;;;;6669885;89;20195;-80
2022/10/28 22:07:28;;;;;;;1999.90;999.90;;;17.60;99.90;;;;;;6654030;89;20207;-79
2022/10/28 22:17:29;;;;;;;1999.90;999.90;;;17.40;99.90;;;;;;6653619;89;20275;-79
2022/10/28 22:27:29;;;;;;;1999.90;999.90;;;17.20;99.90;;;;;;6650106;89;20384;-79
2022/10/28 22:37:30;;;;;;;1999.90;999.90;;;17.30;99.90;;;;;;6633829;89;20189;-79
2022/10/28 22:47:30;;;;;;;1999.90;999.90;;;16.90;99.90;;;;;;6647648;89;20179;-79
2022/10/28 22:57:31;;;;;;;1999.90;999.90;;;16.80;99.90;;;;;;6670570;89;20208;-79
2022/10/28 23:07:31;;;;;;;1999.90;999.90;;;17.00;99.90;;;;;;6671253;89;20195;-80
2022/10/28 23:17:32;;;;;;;1999.90;999.90;;;16.50;99.90;;;;;;6658995;89;20704;-80
2022/10/28 23:27:32;;;;;;;1999.90;999.90;;;16.30;99.90;;;;;;6671417;89;20376;-80
2022/10/28 23:37:33;;;;;;;1999.90;999.90;;;16.30;99.90;;;;;;6663127;89;20255;-80
2022/10/28 23:47:34;;;;;;;1999.90;999.90;;;16.30;99.90;;;;;;6657981;89;20244;-80
2022/10/28 23:57:34;;;;;;;1999.90;999.90;;;16.20;99.90;;;;;;6658679;89;20185;-79
